sensor_id;sensor_type;location;lat;lon;timestamp;P1;durP1;ratioP1;P2;durP2;ratioP2
19879;SDS011;10102;50.828;4.416;2022-07-06T00:01:19;6.18;;;1.50;;
19879;SDS011;10102;50.828;4.416;2022-07-06T00:03:45;2.83;;;1.83;;
19879;SDS011;10102;50.828;4.416;2022-07-06T00:06:11;4.97;;;1.90;;
19879;SDS011;10102;50.828;4.416;2022-07-06T00:08:37;3.75;;;1.83;;
19879;SDS011;10102;50.828;4.416;2022-07-06T00:11:04;6.80;;;2.00;;
19879;SDS011;10102;50.828;4.416;2022-07-06T00:13:30;6.18;;;2.00;;
19879;SDS011;10102;50.828;4.416;2022-07-06T00:15:56;7.50;;;1.90;;
19879;SDS011;10102;50.828;4.416;2022-07-06T00:18:22;7.18;;;2.25;;
19879;SDS011;10102;50.828;4.416;2022-07-06T00:20:48;10.65;;;2.30;;
19879;SDS011;10102;50.828;4.416;2022-07-06T00:23:13;4.60;;;1.75;;
19879;SDS011;10102;50.828;4.416;2022-07-06T00:25:39;5.70;;;1.80;;
19879;SDS011;10102;50.828;4.416;2022-07-06T00:28:05;10.95;;;2.10;;
19879;SDS011;10102;50.828;4.416;2022-07-06T00:30:31;3.88;;;1.92;;
19879;SDS011;10102;50.828;4.416;2022-07-06T00:32:57;7.05;;;1.95;;
19879;SDS011;10102;50.828;4.416;2022-07-06T00:35:23;4.00;;;1.95;;
19879;SDS011;10102;50.828;4.416;2022-07-06T00:37:50;2.47;;;1.88;;
19879;SDS011;10102;50.828;4.416;2022-07-06T00:40:16;4.85;;;2.35;;
19879;SDS011;10102;50.828;4.416;2022-07-06T00:42:42;4.72;;;1.90;;
19879;SDS011;10102;50.828;4.416;2022-07-06T00:45:10;5.63;;;2.00;;
19879;SDS011;10102;50.828;4.416;2022-07-06T00:47:38;5.47;;;2.25;;
19879;SDS011;10102;50.828;4.416;2022-07-06T00:50:06;4.07;;;1.85;;
19879;SDS011;10102;50.828;4.416;2022-07-06T00:52:39;4.28;;;2.10;;
19879;SDS011;10102;50.828;4.416;2022-07-06T00:55:06;5.15;;;2.20;;
19879;SDS011;10102;50.828;4.416;2022-07-06T00:57:33;5.50;;;2.28;;
19879;SDS011;10102;50.828;4.416;2022-07-06T01:00:01;5.18;;;2.05;;
19879;SDS011;10102;50.828;4.416;2022-07-06T01:02:31;8.38;;;2.28;;
19879;SDS011;10102;50.828;4.416;2022-07-06T01:04:58;3.33;;;2.03;;
19879;SDS011;10102;50.828;4.416;2022-07-06T01:07:23;7.40;;;2.22;;
19879;SDS011;10102;50.828;4.416;2022-07-06T01:09:50;7.15;;;2.05;;
19879;SDS011;10102;50.828;4.416;2022-07-06T01:12:15;8.40;;;2.70;;
19879;SDS011;10102;50.828;4.416;2022-07-06T01:14:42;2.70;;;2.25;;
19879;SDS011;10102;50.828;4.416;2022-07-06T01:17:08;6.00;;;2.17;;
19879;SDS011;10102;50.828;4.416;2022-07-06T01:19:34;4.28;;;2.10;;
19879;SDS011;10102;50.828;4.416;2022-07-06T01:22:00;5.13;;;2.08;;
19879;SDS011;10102;50.828;4.416;2022-07-06T01:24:26;2.58;;;2.20;;
19879;SDS011;10102;50.828;4.416;2022-07-06T01:26:52;3.60;;;2.38;;
19879;SDS011;10102;50.828;4.416;2022-07-06T01:29:17;5.03;;;2.22;;
19879;SDS011;10102;50.828;4.416;2022-07-06T01:31:47;4.18;;;2.08;;
19879;SDS011;10102;50.828;4.416;2022-07-06T01:34:14;3.40;;;1.90;;
19879;SDS011;10102;50.828;4.416;2022-07-06T01:36:43;4.25;;;2.00;;
19879;SDS011;10102;50.828;4.416;2022-07-06T01:39:10;3.42;;;1.98;;
19879;SDS011;10102;50.828;4.416;2022-07-06T01:41:36;4.95;;;2.30;;
19879;SDS011;10102;50.828;4.416;2022-07-06T01:44:03;4.82;;;2.22;;
19879;SDS011;10102;50.828;4.416;2022-07-06T01:46:29;4.45;;;2.05;;
19879;SDS011;10102;50.828;4.416;2022-07-06T01:48:55;5.55;;;2.65;;
19879;SDS011;10102;50.828;4.416;2022-07-06T01:51:21;6.15;;;2.42;;
19879;SDS011;10102;50.828;4.416;2022-07-06T01:53:46;3.80;;;2.25;;
19879;SDS011;10102;50.828;4.416;2022-07-06T01:56:13;4.82;;;2.58;;
19879;SDS011;10102;50.828;4.416;2022-07-06T01:58:39;5.05;;;2.20;;
19879;SDS011;10102;50.828;4.416;2022-07-06T02:01:09;4.60;;;2.20;;
19879;SDS011;10102;50.828;4.416;2022-07-06T02:03:36;4.65;;;2.35;;
19879;SDS011;10102;50.828;4.416;2022-07-06T02:06:02;7.13;;;2.22;;
19879;SDS011;10102;50.828;4.416;2022-07-06T02:08:29;7.43;;;2.22;;
19879;SDS011;10102;50.828;4.416;2022-07-06T02:10:55;2.22;;;1.98;;
19879;SDS011;10102;50.828;4.416;2022-07-06T02:13:20;7.18;;;2.03;;
19879;SDS011;10102;50.828;4.416;2022-07-06T02:15:46;7.28;;;2.50;;
19879;SDS011;10102;50.828;4.416;2022-07-06T02:18:12;2.83;;;2.10;;
19879;SDS011;10102;50.828;4.416;2022-07-06T02:20:38;2.70;;;2.00;;
19879;SDS011;10102;50.828;4.416;2022-07-06T02:23:04;3.17;;;2.03;;
19879;SDS011;10102;50.828;4.416;2022-07-06T02:25:29;6.68;;;2.17;;
19879;SDS011;10102;50.828;4.416;2022-07-06T02:27:55;4.15;;;2.20;;
19879;SDS011;10102;50.828;4.416;2022-07-06T02:30:21;3.80;;;2.28;;
19879;SDS011;10102;50.828;4.416;2022-07-06T02:32:46;3.88;;;2.42;;
19879;SDS011;10102;50.828;4.416;2022-07-06T02:35:12;5.35;;;2.60;;
19879;SDS011;10102;50.828;4.416;2022-07-06T02:37:38;5.18;;;2.40;;
19879;SDS011;10102;50.828;4.416;2022-07-06T02:40:04;4.57;;;2.38;;
19879;SDS011;10102;50.828;4.416;2022-07-06T02:42:30;6.93;;;2.50;;
19879;SDS011;10102;50.828;4.416;2022-07-06T02:44:56;2.42;;;2.13;;
19879;SDS011;10102;50.828;4.416;2022-07-06T02:47:22;4.00;;;2.05;;
19879;SDS011;10102;50.828;4.416;2022-07-06T02:49:47;3.20;;;2.22;;
19879;SDS011;10102;50.828;4.416;2022-07-06T02:52:13;2.92;;;2.08;;
19879;SDS011;10102;50.828;4.416;2022-07-06T02:54:39;5.22;;;2.60;;
19879;SDS011;10102;50.828;4.416;2022-07-06T02:57:05;5.40;;;2.40;;
19879;SDS011;10102;50.828;4.416;2022-07-06T02:59:31;3.92;;;2.45;;
19879;SDS011;10102;50.828;4.416;2022-07-06T03:01:57;4.55;;;2.10;;
19879;SDS011;10102;50.828;4.416;2022-07-06T03:04:23;3.30;;;2.30;;
19879;SDS011;10102;50.828;4.416;2022-07-06T03:06:48;4.90;;;2.30;;
19879;SDS011;10102;50.828;4.416;2022-07-06T03:09:14;5.47;;;2.53;;
19879;SDS011;10102;50.828;4.416;2022-07-06T03:11:40;5.28;;;2.45;;
19879;SDS011;10102;50.828;4.416;2022-07-06T03:14:05;4.88;;;2.58;;
19879;SDS011;10102;50.828;4.416;2022-07-06T03:16:31;5.78;;;2.40;;
19879;SDS011;10102;50.828;4.416;2022-07-06T03:18:57;7.07;;;2.53;;
19879;SDS011;10102;50.828;4.416;2022-07-06T03:21:26;5.30;;;2.70;;
19879;SDS011;10102;50.828;4.416;2022-07-06T03:23:52;4.95;;;2.70;;
19879;SDS011;10102;50.828;4.416;2022-07-06T03:26:17;3.88;;;2.28;;
19879;SDS011;10102;50.828;4.416;2022-07-06T03:28:43;4.85;;;3.10;;
19879;SDS011;10102;50.828;4.416;2022-07-06T03:31:08;6.63;;;2.80;;
19879;SDS011;10102;50.828;4.416;2022-07-06T03:33:34;4.10;;;2.60;;
19879;SDS011;10102;50.828;4.416;2022-07-06T03:36:00;5.47;;;2.55;;
19879;SDS011;10102;50.828;4.416;2022-07-06T03:38:26;3.83;;;2.22;;
19879;SDS011;10102;50.828;4.416;2022-07-06T03:40:51;4.25;;;2.40;;
19879;SDS011;10102;50.828;4.416;2022-07-06T03:43:17;6.43;;;2.58;;
19879;SDS011;10102;50.828;4.416;2022-07-06T03:45:43;6.40;;;2.78;;
19879;SDS011;10102;50.828;4.416;2022-07-06T03:48:09;3.78;;;2.40;;
19879;SDS011;10102;50.828;4.416;2022-07-06T03:50:35;3.80;;;2.30;;
19879;SDS011;10102;50.828;4.416;2022-07-06T03:53:01;4.45;;;2.40;;
19879;SDS011;10102;50.828;4.416;2022-07-06T03:55:27;6.35;;;2.30;;
19879;SDS011;10102;50.828;4.416;2022-07-06T03:57:53;7.32;;;2.28;;
19879;SDS011;10102;50.828;4.416;2022-07-06T04:00:19;3.75;;;2.22;;
19879;SDS011;10102;50.828;4.416;2022-07-06T04:02:44;4.40;;;2.35;;
19879;SDS011;10102;50.828;4.416;2022-07-06T04:05:10;4.80;;;2.55;;
19879;SDS011;10102;50.828;4.416;2022-07-06T04:07:36;4.28;;;2.45;;
19879;SDS011;10102;50.828;4.416;2022-07-06T04:10:02;4.20;;;2.47;;
19879;SDS011;10102;50.828;4.416;2022-07-06T04:12:27;6.00;;;2.85;;
19879;SDS011;10102;50.828;4.416;2022-07-06T04:14:55;5.32;;;2.50;;
19879;SDS011;10102;50.828;4.416;2022-07-06T04:17:22;3.50;;;2.50;;
19879;SDS011;10102;50.828;4.416;2022-07-06T04:20:17;3.15;;;2.30;;
19879;SDS011;10102;50.828;4.416;2022-07-06T04:22:43;2.67;;;2.10;;
19879;SDS011;10102;50.828;4.416;2022-07-06T04:25:09;5.68;;;2.72;;
19879;SDS011;10102;50.828;4.416;2022-07-06T04:27:35;8.80;;;2.47;;
19879;SDS011;10102;50.828;4.416;2022-07-06T04:30:02;5.50;;;2.42;;
19879;SDS011;10102;50.828;4.416;2022-07-06T04:32:29;4.00;;;2.50;;
19879;SDS011;10102;50.828;4.416;2022-07-06T04:34:54;6.15;;;2.63;;
19879;SDS011;10102;50.828;4.416;2022-07-06T04:37:20;3.78;;;2.53;;
19879;SDS011;10102;50.828;4.416;2022-07-06T04:39:46;8.27;;;2.83;;
19879;SDS011;10102;50.828;4.416;2022-07-06T04:42:12;7.25;;;2.45;;
19879;SDS011;10102;50.828;4.416;2022-07-06T04:44:38;4.07;;;3.00;;
19879;SDS011;10102;50.828;4.416;2022-07-06T04:47:03;5.65;;;2.78;;
19879;SDS011;10102;50.828;4.416;2022-07-06T04:49:29;2.50;;;2.30;;
19879;SDS011;10102;50.828;4.416;2022-07-06T04:51:55;5.07;;;2.95;;
19879;SDS011;10102;50.828;4.416;2022-07-06T04:54:21;7.50;;;2.63;;
19879;SDS011;10102;50.828;4.416;2022-07-06T04:56:46;4.10;;;2.70;;
19879;SDS011;10102;50.828;4.416;2022-07-06T04:59:13;7.32;;;2.92;;
19879;SDS011;10102;50.828;4.416;2022-07-06T05:01:39;4.68;;;2.80;;
19879;SDS011;10102;50.828;4.416;2022-07-06T05:04:06;4.38;;;2.63;;
19879;SDS011;10102;50.828;4.416;2022-07-06T05:06:32;7.68;;;2.90;;
19879;SDS011;10102;50.828;4.416;2022-07-06T05:08:58;5.97;;;3.03;;
19879;SDS011;10102;50.828;4.416;2022-07-06T05:11:27;4.63;;;2.97;;
19879;SDS011;10102;50.828;4.416;2022-07-06T05:13:53;6.97;;;2.90;;
19879;SDS011;10102;50.828;4.416;2022-07-06T05:16:19;9.20;;;3.05;;
19879;SDS011;10102;50.828;4.416;2022-07-06T05:18:46;9.05;;;2.92;;
19879;SDS011;10102;50.828;4.416;2022-07-06T05:21:11;5.40;;;2.55;;
19879;SDS011;10102;50.828;4.416;2022-07-06T05:23:38;7.88;;;2.88;;
19879;SDS011;10102;50.828;4.416;2022-07-06T05:26:03;8.05;;;3.17;;
19879;SDS011;10102;50.828;4.416;2022-07-06T05:28:29;7.30;;;3.35;;
19879;SDS011;10102;50.828;4.416;2022-07-06T05:30:55;5.88;;;3.15;;
19879;SDS011;10102;50.828;4.416;2022-07-06T05:33:21;11.93;;;3.55;;
19879;SDS011;10102;50.828;4.416;2022-07-06T05:35:46;6.50;;;3.25;;
19879;SDS011;10102;50.828;4.416;2022-07-06T05:38:12;7.88;;;3.88;;
19879;SDS011;10102;50.828;4.416;2022-07-06T05:40:38;7.78;;;4.20;;
19879;SDS011;10102;50.828;4.416;2022-07-06T05:43:03;15.80;;;5.00;;
19879;SDS011;10102;50.828;4.416;2022-07-06T05:45:30;12.88;;;4.63;;
19879;SDS011;10102;50.828;4.416;2022-07-06T05:47:56;7.18;;;4.45;;
19879;SDS011;10102;50.828;4.416;2022-07-06T05:50:40;11.85;;;3.97;;
19879;SDS011;10102;50.828;4.416;2022-07-06T05:53:06;15.20;;;4.22;;
19879;SDS011;10102;50.828;4.416;2022-07-06T05:55:32;8.23;;;3.80;;
19879;SDS011;10102;50.828;4.416;2022-07-06T05:57:58;18.98;;;3.83;;
19879;SDS011;10102;50.828;4.416;2022-07-06T06:00:24;11.70;;;3.90;;
19879;SDS011;10102;50.828;4.416;2022-07-06T06:02:51;9.80;;;4.15;;
19879;SDS011;10102;50.828;4.416;2022-07-06T06:05:18;8.55;;;3.67;;
19879;SDS011;10102;50.828;4.416;2022-07-06T06:07:44;8.48;;;3.45;;
19879;SDS011;10102;50.828;4.416;2022-07-06T06:10:16;15.70;;;5.25;;
19879;SDS011;10102;50.828;4.416;2022-07-06T06:12:43;17.40;;;6.97;;
19879;SDS011;10102;50.828;4.416;2022-07-06T06:15:10;15.27;;;6.20;;
19879;SDS011;10102;50.828;4.416;2022-07-06T06:17:36;15.98;;;8.32;;
19879;SDS011;10102;50.828;4.416;2022-07-06T06:20:03;12.23;;;5.15;;
19879;SDS011;10102;50.828;4.416;2022-07-06T06:22:31;12.63;;;5.70;;
19879;SDS011;10102;50.828;4.416;2022-07-06T06:25:09;14.95;;;5.20;;
19879;SDS011;10102;50.828;4.416;2022-07-06T06:27:35;15.20;;;6.32;;
19879;SDS011;10102;50.828;4.416;2022-07-06T06:30:01;19.17;;;5.78;;
19879;SDS011;10102;50.828;4.416;2022-07-06T06:32:27;10.82;;;4.85;;
19879;SDS011;10102;50.828;4.416;2022-07-06T06:34:52;10.25;;;5.13;;
19879;SDS011;10102;50.828;4.416;2022-07-06T06:37:18;12.68;;;4.43;;
19879;SDS011;10102;50.828;4.416;2022-07-06T06:39:43;12.00;;;4.15;;
19879;SDS011;10102;50.828;4.416;2022-07-06T06:42:09;6.93;;;3.50;;
19879;SDS011;10102;50.828;4.416;2022-07-06T06:44:35;8.35;;;3.13;;
19879;SDS011;10102;50.828;4.416;2022-07-06T06:47:00;9.10;;;2.78;;
19879;SDS011;10102;50.828;4.416;2022-07-06T06:49:26;10.93;;;3.60;;
19879;SDS011;10102;50.828;4.416;2022-07-06T06:51:52;9.68;;;2.60;;
19879;SDS011;10102;50.828;4.416;2022-07-06T06:54:17;8.75;;;3.42;;
19879;SDS011;10102;50.828;4.416;2022-07-06T06:56:43;8.07;;;3.85;;
19879;SDS011;10102;50.828;4.416;2022-07-06T06:59:09;10.50;;;2.92;;
19879;SDS011;10102;50.828;4.416;2022-07-06T07:01:34;9.32;;;3.20;;
19879;SDS011;10102;50.828;4.416;2022-07-06T07:04:00;8.20;;;3.10;;
19879;SDS011;10102;50.828;4.416;2022-07-06T07:06:26;8.63;;;3.55;;
19879;SDS011;10102;50.828;4.416;2022-07-06T07:08:51;14.00;;;3.85;;
19879;SDS011;10102;50.828;4.416;2022-07-06T07:11:17;11.55;;;3.22;;
19879;SDS011;10102;50.828;4.416;2022-07-06T07:13:43;10.57;;;2.60;;
19879;SDS011;10102;50.828;4.416;2022-07-06T07:16:08;17.85;;;3.10;;
19879;SDS011;10102;50.828;4.416;2022-07-06T07:18:34;12.02;;;3.10;;
19879;SDS011;10102;50.828;4.416;2022-07-06T07:21:00;11.13;;;3.03;;
19879;SDS011;10102;50.828;4.416;2022-07-06T07:23:26;11.15;;;3.28;;
19879;SDS011;10102;50.828;4.416;2022-07-06T07:25:52;10.65;;;2.80;;
19879;SDS011;10102;50.828;4.416;2022-07-06T07:28:17;12.38;;;3.42;;
19879;SDS011;10102;50.828;4.416;2022-07-06T07:30:43;11.93;;;3.13;;
19879;SDS011;10102;50.828;4.416;2022-07-06T07:33:08;9.77;;;3.42;;
19879;SDS011;10102;50.828;4.416;2022-07-06T07:35:34;8.13;;;2.78;;
19879;SDS011;10102;50.828;4.416;2022-07-06T07:38:00;7.65;;;2.30;;
19879;SDS011;10102;50.828;4.416;2022-07-06T07:40:25;13.05;;;4.10;;
19879;SDS011;10102;50.828;4.416;2022-07-06T07:42:52;10.55;;;4.05;;
19879;SDS011;10102;50.828;4.416;2022-07-06T07:45:18;9.63;;;2.97;;
19879;SDS011;10102;50.828;4.416;2022-07-06T07:47:43;6.72;;;2.85;;
19879;SDS011;10102;50.828;4.416;2022-07-06T07:50:10;7.55;;;2.60;;
19879;SDS011;10102;50.828;4.416;2022-07-06T07:52:36;6.15;;;2.70;;
19879;SDS011;10102;50.828;4.416;2022-07-06T07:55:01;8.20;;;3.20;;
19879;SDS011;10102;50.828;4.416;2022-07-06T07:57:27;12.65;;;3.10;;
19879;SDS011;10102;50.828;4.416;2022-07-06T07:59:53;12.43;;;2.55;;
19879;SDS011;10102;50.828;4.416;2022-07-06T08:02:19;10.65;;;2.75;;
19879;SDS011;10102;50.828;4.416;2022-07-06T08:04:44;14.52;;;2.47;;
19879;SDS011;10102;50.828;4.416;2022-07-06T08:07:10;7.13;;;2.42;;
19879;SDS011;10102;50.828;4.416;2022-07-06T08:09:36;7.85;;;2.60;;
19879;SDS011;10102;50.828;4.416;2022-07-06T08:12:02;5.30;;;2.55;;
19879;SDS011;10102;50.828;4.416;2022-07-06T08:14:28;4.63;;;2.50;;
19879;SDS011;10102;50.828;4.416;2022-07-06T08:16:53;6.05;;;2.72;;
19879;SDS011;10102;50.828;4.416;2022-07-06T08:19:19;6.28;;;2.92;;
19879;SDS011;10102;50.828;4.416;2022-07-06T08:21:45;5.97;;;3.30;;
19879;SDS011;10102;50.828;4.416;2022-07-06T08:24:11;5.65;;;3.25;;
19879;SDS011;10102;50.828;4.416;2022-07-06T08:26:36;13.90;;;4.00;;
19879;SDS011;10102;50.828;4.416;2022-07-06T08:29:03;7.78;;;3.25;;
19879;SDS011;10102;50.828;4.416;2022-07-06T08:31:29;9.20;;;3.33;;
19879;SDS011;10102;50.828;4.416;2022-07-06T08:33:55;6.35;;;3.28;;
19879;SDS011;10102;50.828;4.416;2022-07-06T08:36:21;8.32;;;3.08;;
19879;SDS011;10102;50.828;4.416;2022-07-06T08:38:47;8.25;;;2.75;;
19879;SDS011;10102;50.828;4.416;2022-07-06T08:41:14;10.30;;;3.00;;
19879;SDS011;10102;50.828;4.416;2022-07-06T08:43:41;12.40;;;2.90;;
19879;SDS011;10102;50.828;4.416;2022-07-06T08:46:07;10.07;;;2.30;;
19879;SDS011;10102;50.828;4.416;2022-07-06T08:48:36;5.93;;;2.88;;
19879;SDS011;10102;50.828;4.416;2022-07-06T08:51:05;6.38;;;3.28;;
19879;SDS011;10102;50.828;4.416;2022-07-06T08:53:31;8.63;;;3.38;;
19879;SDS011;10102;50.828;4.416;2022-07-06T08:55:57;9.63;;;3.42;;
19879;SDS011;10102;50.828;4.416;2022-07-06T08:58:26;11.50;;;3.40;;
19879;SDS011;10102;50.828;4.416;2022-07-06T09:00:54;13.13;;;3.05;;
19879;SDS011;10102;50.828;4.416;2022-07-06T09:03:20;9.50;;;4.00;;
19879;SDS011;10102;50.828;4.416;2022-07-06T09:05:46;7.22;;;2.80;;
19879;SDS011;10102;50.828;4.416;2022-07-06T09:08:13;7.70;;;3.20;;
19879;SDS011;10102;50.828;4.416;2022-07-06T09:10:39;16.13;;;2.97;;
19879;SDS011;10102;50.828;4.416;2022-07-06T09:13:05;6.25;;;3.22;;
19879;SDS011;10102;50.828;4.416;2022-07-06T09:15:34;9.07;;;3.58;;
19879;SDS011;10102;50.828;4.416;2022-07-06T09:18:03;10.23;;;3.45;;
19879;SDS011;10102;50.828;4.416;2022-07-06T09:20:30;9.05;;;3.50;;
19879;SDS011;10102;50.828;4.416;2022-07-06T09:23:15;10.93;;;3.58;;
19879;SDS011;10102;50.828;4.416;2022-07-06T09:25:41;9.35;;;3.30;;
19879;SDS011;10102;50.828;4.416;2022-07-06T09:28:08;10.38;;;3.13;;
19879;SDS011;10102;50.828;4.416;2022-07-06T09:30:33;8.75;;;2.53;;
19879;SDS011;10102;50.828;4.416;2022-07-06T09:33:05;6.90;;;2.67;;
19879;SDS011;10102;50.828;4.416;2022-07-06T09:35:37;8.60;;;2.63;;
19879;SDS011;10102;50.828;4.416;2022-07-06T09:38:05;9.60;;;2.90;;
19879;SDS011;10102;50.828;4.416;2022-07-06T09:40:32;4.38;;;2.33;;
19879;SDS011;10102;50.828;4.416;2022-07-06T09:43:09;7.20;;;3.03;;
19879;SDS011;10102;50.828;4.416;2022-07-06T09:45:46;8.40;;;3.00;;
19879;SDS011;10102;50.828;4.416;2022-07-06T09:48:15;9.02;;;3.15;;
19879;SDS011;10102;50.828;4.416;2022-07-06T09:50:49;7.63;;;2.95;;
19879;SDS011;10102;50.828;4.416;2022-07-06T09:53:23;5.18;;;2.45;;
19879;SDS011;10102;50.828;4.416;2022-07-06T09:55:51;12.23;;;2.40;;
19879;SDS011;10102;50.828;4.416;2022-07-06T09:58:21;11.82;;;2.83;;
19879;SDS011;10102;50.828;4.416;2022-07-06T10:00:47;6.35;;;3.28;;
19879;SDS011;10102;50.828;4.416;2022-07-06T10:03:14;6.05;;;2.10;;
19879;SDS011;10102;50.828;4.416;2022-07-06T10:05:41;8.45;;;2.88;;
19879;SDS011;10102;50.828;4.416;2022-07-06T10:08:11;7.53;;;2.83;;
19879;SDS011;10102;50.828;4.416;2022-07-06T10:10:38;12.10;;;2.20;;
19879;SDS011;10102;50.828;4.416;2022-07-06T10:13:05;8.18;;;2.38;;
19879;SDS011;10102;50.828;4.416;2022-07-06T10:15:31;10.65;;;2.53;;
19879;SDS011;10102;50.828;4.416;2022-07-06T10:17:58;10.23;;;2.45;;
19879;SDS011;10102;50.828;4.416;2022-07-06T10:20:24;5.97;;;2.00;;
19879;SDS011;10102;50.828;4.416;2022-07-06T10:22:54;8.65;;;2.75;;
19879;SDS011;10102;50.828;4.416;2022-07-06T10:25:22;11.18;;;2.95;;
19879;SDS011;10102;50.828;4.416;2022-07-06T10:27:49;5.00;;;2.40;;
19879;SDS011;10102;50.828;4.416;2022-07-06T10:30:16;7.78;;;2.92;;
19879;SDS011;10102;50.828;4.416;2022-07-06T10:32:44;5.63;;;2.70;;
19879;SDS011;10102;50.828;4.416;2022-07-06T10:35:11;5.30;;;1.98;;
19879;SDS011;10102;50.828;4.416;2022-07-06T10:37:38;6.43;;;2.72;;
19879;SDS011;10102;50.828;4.416;2022-07-06T10:40:04;7.85;;;2.33;;
19879;SDS011;10102;50.828;4.416;2022-07-06T10:42:56;9.45;;;2.72;;
19879;SDS011;10102;50.828;4.416;2022-07-06T10:50:37;6.00;;;2.80;;
19879;SDS011;10102;50.828;4.416;2022-07-06T10:53:02;5.18;;;2.35;;
19879;SDS011;10102;50.828;4.416;2022-07-06T10:55:36;10.10;;;2.70;;
19879;SDS011;10102;50.828;4.416;2022-07-06T10:58:03;7.00;;;2.40;;
19879;SDS011;10102;50.828;4.416;2022-07-06T11:06:18;7.28;;;2.75;;
19879;SDS011;10102;50.828;4.416;2022-07-06T11:13:55;15.93;;;2.70;;
19879;SDS011;10102;50.828;4.416;2022-07-06T11:16:24;7.97;;;3.28;;
19879;SDS011;10102;50.828;4.416;2022-07-06T11:21:34;12.23;;;3.10;;
19879;SDS011;10102;50.828;4.416;2022-07-06T11:24:03;6.63;;;2.85;;
19879;SDS011;10102;50.828;4.416;2022-07-06T11:26:30;4.47;;;2.53;;
19879;SDS011;10102;50.828;4.416;2022-07-06T11:28:57;10.23;;;3.05;;
19879;SDS011;10102;50.828;4.416;2022-07-06T11:31:27;4.85;;;2.38;;
19879;SDS011;10102;50.828;4.416;2022-07-06T11:33:53;3.97;;;2.00;;
19879;SDS011;10102;50.828;4.416;2022-07-06T11:36:19;9.65;;;2.17;;
19879;SDS011;10102;50.828;4.416;2022-07-06T11:38:47;3.13;;;1.83;;
19879;SDS011;10102;50.828;4.416;2022-07-06T11:41:14;7.45;;;2.47;;
19879;SDS011;10102;50.828;4.416;2022-07-06T11:43:45;5.15;;;2.35;;
19879;SDS011;10102;50.828;4.416;2022-07-06T11:46:44;6.95;;;2.03;;
19879;SDS011;10102;50.828;4.416;2022-07-06T11:51:31;8.07;;;1.70;;
19879;SDS011;10102;50.828;4.416;2022-07-06T11:53:59;5.85;;;1.52;;
19879;SDS011;10102;50.828;4.416;2022-07-06T11:56:28;5.03;;;1.63;;
19879;SDS011;10102;50.828;4.416;2022-07-06T11:58:56;5.65;;;2.40;;
19879;SDS011;10102;50.828;4.416;2022-07-06T12:01:24;7.95;;;2.08;;
19879;SDS011;10102;50.828;4.416;2022-07-06T12:03:51;8.95;;;2.75;;
19879;SDS011;10102;50.828;4.416;2022-07-06T12:06:19;7.50;;;2.00;;
19879;SDS011;10102;50.828;4.416;2022-07-06T12:08:47;8.75;;;2.45;;
19879;SDS011;10102;50.828;4.416;2022-07-06T12:11:21;5.35;;;2.10;;
19879;SDS011;10102;50.828;4.416;2022-07-06T12:13:48;5.22;;;2.30;;
19879;SDS011;10102;50.828;4.416;2022-07-06T12:16:15;9.43;;;2.20;;
19879;SDS011;10102;50.828;4.416;2022-07-06T12:18:42;13.07;;;2.20;;
19879;SDS011;10102;50.828;4.416;2022-07-06T12:21:17;5.50;;;2.10;;
19879;SDS011;10102;50.828;4.416;2022-07-06T12:23:47;6.35;;;1.80;;
19879;SDS011;10102;50.828;4.416;2022-07-06T12:26:16;5.53;;;1.90;;
19879;SDS011;10102;50.828;4.416;2022-07-06T12:28:43;5.00;;;1.65;;
19879;SDS011;10102;50.828;4.416;2022-07-06T12:31:09;10.88;;;1.92;;
19879;SDS011;10102;50.828;4.416;2022-07-06T12:33:35;4.53;;;1.85;;
19879;SDS011;10102;50.828;4.416;2022-07-06T12:36:08;4.75;;;1.83;;
19879;SDS011;10102;50.828;4.416;2022-07-06T12:38:44;5.07;;;1.75;;
19879;SDS011;10102;50.828;4.416;2022-07-06T12:41:11;6.32;;;2.10;;
19879;SDS011;10102;50.828;4.416;2022-07-06T12:44:02;4.65;;;1.85;;
19879;SDS011;10102;50.828;4.416;2022-07-06T12:46:33;3.80;;;1.83;;
19879;SDS011;10102;50.828;4.416;2022-07-06T12:49:09;6.60;;;1.70;;
19879;SDS011;10102;50.828;4.416;2022-07-06T12:51:49;7.47;;;1.92;;
19879;SDS011;10102;50.828;4.416;2022-07-06T12:54:19;11.63;;;1.75;;
19879;SDS011;10102;50.828;4.416;2022-07-06T12:59:35;3.75;;;1.92;;
19879;SDS011;10102;50.828;4.416;2022-07-06T13:02:02;4.35;;;2.33;;
19879;SDS011;10102;50.828;4.416;2022-07-06T13:04:29;3.80;;;2.05;;
19879;SDS011;10102;50.828;4.416;2022-07-06T13:06:58;5.03;;;2.30;;
19879;SDS011;10102;50.828;4.416;2022-07-06T13:09:24;6.20;;;1.70;;
19879;SDS011;10102;50.828;4.416;2022-07-06T13:11:50;9.95;;;2.22;;
19879;SDS011;10102;50.828;4.416;2022-07-06T13:14:16;3.75;;;1.60;;
19879;SDS011;10102;50.828;4.416;2022-07-06T13:16:44;3.45;;;2.05;;
19879;SDS011;10102;50.828;4.416;2022-07-06T13:19:10;6.25;;;1.85;;
19879;SDS011;10102;50.828;4.416;2022-07-06T13:21:36;5.95;;;1.77;;
19879;SDS011;10102;50.828;4.416;2022-07-06T13:24:03;8.23;;;1.90;;
19879;SDS011;10102;50.828;4.416;2022-07-06T13:26:29;6.88;;;2.88;;
19879;SDS011;10102;50.828;4.416;2022-07-06T13:29:01;4.38;;;2.08;;
19879;SDS011;10102;50.828;4.416;2022-07-06T13:31:28;6.68;;;2.35;;
19879;SDS011;10102;50.828;4.416;2022-07-06T13:33:55;4.40;;;1.90;;
19879;SDS011;10102;50.828;4.416;2022-07-06T13:36:21;6.38;;;2.13;;
19879;SDS011;10102;50.828;4.416;2022-07-06T13:38:48;6.07;;;2.10;;
19879;SDS011;10102;50.828;4.416;2022-07-06T13:43:42;5.28;;;2.47;;
19879;SDS011;10102;50.828;4.416;2022-07-06T13:46:08;6.78;;;2.42;;
19879;SDS011;10102;50.828;4.416;2022-07-06T13:48:36;9.07;;;2.20;;
19879;SDS011;10102;50.828;4.416;2022-07-06T13:51:03;5.78;;;2.30;;
19879;SDS011;10102;50.828;4.416;2022-07-06T13:53:28;6.10;;;2.25;;
19879;SDS011;10102;50.828;4.416;2022-07-06T13:55:56;6.05;;;2.35;;
19879;SDS011;10102;50.828;4.416;2022-07-06T13:58:22;5.43;;;2.10;;
19879;SDS011;10102;50.828;4.416;2022-07-06T14:00:48;3.97;;;1.60;;
19879;SDS011;10102;50.828;4.416;2022-07-06T14:03:13;7.55;;;1.90;;
19879;SDS011;10102;50.828;4.416;2022-07-06T14:05:39;7.88;;;1.52;;
19879;SDS011;10102;50.828;4.416;2022-07-06T14:08:05;4.22;;;1.65;;
19879;SDS011;10102;50.828;4.416;2022-07-06T14:10:30;4.53;;;1.80;;
19879;SDS011;10102;50.828;4.416;2022-07-06T14:12:56;4.18;;;1.60;;
19879;SDS011;10102;50.828;4.416;2022-07-06T14:15:22;4.40;;;2.05;;
19879;SDS011;10102;50.828;4.416;2022-07-06T14:17:48;6.50;;;2.08;;
19879;SDS011;10102;50.828;4.416;2022-07-06T14:20:14;7.75;;;1.98;;
19879;SDS011;10102;50.828;4.416;2022-07-06T14:22:40;9.00;;;1.60;;
19879;SDS011;10102;50.828;4.416;2022-07-06T14:25:06;5.47;;;1.75;;
19879;SDS011;10102;50.828;4.416;2022-07-06T14:27:33;4.85;;;2.00;;
19879;SDS011;10102;50.828;4.416;2022-07-06T14:29:59;8.15;;;1.85;;
19879;SDS011;10102;50.828;4.416;2022-07-06T14:32:25;5.90;;;1.77;;
19879;SDS011;10102;50.828;4.416;2022-07-06T14:34:51;8.15;;;1.55;;
19879;SDS011;10102;50.828;4.416;2022-07-06T14:37:17;5.00;;;1.60;;
19879;SDS011;10102;50.828;4.416;2022-07-06T14:39:42;5.30;;;1.75;;
19879;SDS011;10102;50.828;4.416;2022-07-06T14:42:11;5.55;;;1.70;;
19879;SDS011;10102;50.828;4.416;2022-07-06T14:44:37;7.68;;;2.03;;
19879;SDS011;10102;50.828;4.416;2022-07-06T14:47:03;5.25;;;1.90;;
19879;SDS011;10102;50.828;4.416;2022-07-06T14:49:29;3.33;;;1.80;;
19879;SDS011;10102;50.828;4.416;2022-07-06T14:51:55;7.30;;;1.70;;
19879;SDS011;10102;50.828;4.416;2022-07-06T14:54:22;3.25;;;1.42;;
19879;SDS011;10102;50.828;4.416;2022-07-06T14:56:49;5.35;;;1.90;;
19879;SDS011;10102;50.828;4.416;2022-07-06T14:59:14;3.53;;;1.60;;
19879;SDS011;10102;50.828;4.416;2022-07-06T15:01:40;5.88;;;1.67;;
19879;SDS011;10102;50.828;4.416;2022-07-06T15:04:06;4.75;;;1.88;;
19879;SDS011;10102;50.828;4.416;2022-07-06T15:06:32;3.20;;;1.83;;
19879;SDS011;10102;50.828;4.416;2022-07-06T15:08:58;6.40;;;1.70;;
19879;SDS011;10102;50.828;4.416;2022-07-06T15:11:26;9.77;;;1.63;;